sensor_id;sensor_type;location;lat;lon;timestamp;temperature;humidity
55329;DHT22;41205;44.264;19.884;2022-08-01T00:00:23;486.80;1945.60
55329;DHT22;41205;44.264;19.884;2022-08-01T00:02:48;486.90;1920.00
55329;DHT22;41205;44.264;19.884;2022-08-01T00:05:14;486.90;1920.00
55329;DHT22;41205;44.264;19.884;2022-08-01T00:07:39;487.00;1920.00
55329;DHT22;41205;44.264;19.884;2022-08-01T00:10:09;487.00;1894.40
55329;DHT22;41205;44.264;19.884;2022-08-01T00:12:35;487.00;1920.00
55329;DHT22;41205;44.264;19.884;2022-08-01T00:15:01;487.00;1920.00
55329;DHT22;41205;44.264;19.884;2022-08-01T00:17:27;487.00;1920.00
55329;DHT22;41205;44.264;19.884;2022-08-01T00:19:52;487.00;1945.60
55329;DHT22;41205;44.264;19.884;2022-08-01T00:22:18;487.00;1894.40
55329;DHT22;41205;44.264;19.884;2022-08-01T00:24:44;487.10;1868.80
55329;DHT22;41205;44.264;19.884;2022-08-01T00:27:09;487.20;1843.20
55329;DHT22;41205;44.264;19.884;2022-08-01T00:29:35;487.30;1868.80
55329;DHT22;41205;44.264;19.884;2022-08-01T00:32:00;487.30;1843.20
55329;DHT22;41205;44.264;19.884;2022-08-01T00:34:26;487.30;1868.80
55329;DHT22;41205;44.264;19.884;2022-08-01T00:36:51;487.30;1920.00
55329;DHT22;41205;44.264;19.884;2022-08-01T00:39:18;487.30;1894.40
55329;DHT22;41205;44.264;19.884;2022-08-01T00:41:44;487.30;1894.40
55329;DHT22;41205;44.264;19.884;2022-08-01T00:44:09;487.30;1920.00
55329;DHT22;41205;44.264;19.884;2022-08-01T00:46:35;487.30;1920.00
55329;DHT22;41205;44.264;19.884;2022-08-01T00:49:01;487.30;1945.60
55329;DHT22;41205;44.264;19.884;2022-08-01T00:51:26;487.20;1945.60
55329;DHT22;41205;44.264;19.884;2022-08-01T00:53:52;487.20;1945.60
55329;DHT22;41205;44.264;19.884;2022-08-01T00:56:21;487.20;1945.60
55329;DHT22;41205;44.264;19.884;2022-08-01T00:58:49;487.30;1971.20
55329;DHT22;41205;44.264;19.884;2022-08-01T01:01:14;487.30;1971.20
55329;DHT22;41205;44.264;19.884;2022-08-01T01:03:40;487.30;1945.60
55329;DHT22;41205;44.264;19.884;2022-08-01T01:08:45;487.20;1971.20
55329;DHT22;41205;44.264;19.884;2022-08-01T01:11:32;487.20;1996.80
55329;DHT22;41205;44.264;19.884;2022-08-01T01:14:02;487.10;1971.20
55329;DHT22;41205;44.264;19.884;2022-08-01T01:16:29;487.20;1971.20
55329;DHT22;41205;44.264;19.884;2022-08-01T01:18:57;487.10;1971.20
55329;DHT22;41205;44.264;19.884;2022-08-01T01:21:47;487.00;1971.20
55329;DHT22;41205;44.264;19.884;2022-08-01T01:31:42;486.80;2022.40
55329;DHT22;41205;44.264;19.884;2022-08-01T01:34:09;486.60;2073.60
55329;DHT22;41205;44.264;19.884;2022-08-01T01:36:36;486.60;2073.60
55329;DHT22;41205;44.264;19.884;2022-08-01T01:39:02;486.50;2099.20
55329;DHT22;41205;44.264;19.884;2022-08-01T01:41:28;486.60;2073.60
55329;DHT22;41205;44.264;19.884;2022-08-01T01:43:54;486.70;2073.60
55329;DHT22;41205;44.264;19.884;2022-08-01T01:46:22;486.70;2073.60
55329;DHT22;41205;44.264;19.884;2022-08-01T01:48:48;486.70;2073.60
55329;DHT22;41205;44.264;19.884;2022-08-01T01:51:14;486.80;2048.00
55329;DHT22;41205;44.264;19.884;2022-08-01T01:53:40;486.80;2048.00
55329;DHT22;41205;44.264;19.884;2022-08-01T01:56:06;486.80;2073.60
55329;DHT22;41205;44.264;19.884;2022-08-01T01:58:34;486.70;2073.60
55329;DHT22;41205;44.264;19.884;2022-08-01T02:01:02;486.80;2073.60
55329;DHT22;41205;44.264;19.884;2022-08-01T02:03:28;486.70;2073.60
55329;DHT22;41205;44.264;19.884;2022-08-01T02:05:55;486.70;2099.20
55329;DHT22;41205;44.264;19.884;2022-08-01T02:08:22;486.70;2150.40
55329;DHT22;41205;44.264;19.884;2022-08-01T02:10:49;486.70;2176.00
55329;DHT22;41205;44.264;19.884;2022-08-01T02:13:34;486.50;2176.00
55329;DHT22;41205;44.264;19.884;2022-08-01T02:16:01;486.60;2176.00
55329;DHT22;41205;44.264;19.884;2022-08-01T02:18:28;486.60;2150.40
55329;DHT22;41205;44.264;19.884;2022-08-01T02:20:54;486.60;2176.00
55329;DHT22;41205;44.264;19.884;2022-08-01T02:23:19;486.60;2176.00
55329;DHT22;41205;44.264;19.884;2022-08-01T02:25:50;486.60;2176.00
55329;DHT22;41205;44.264;19.884;2022-08-01T02:28:19;486.60;2201.60
55329;DHT22;41205;44.264;19.884;2022-08-01T02:30:48;486.50;2227.20
55329;DHT22;41205;44.264;19.884;2022-08-01T02:33:18;486.50;2201.60
55329;DHT22;41205;44.264;19.884;2022-08-01T02:35:46;486.40;2304.00
55329;DHT22;41205;44.264;19.884;2022-08-01T02:38:12;461.40;2380.80
55329;DHT22;41205;44.264;19.884;2022-08-01T02:40:40;461.10;2380.80
55329;DHT22;41205;44.264;19.884;2022-08-01T02:43:06;461.10;2380.80
55329;DHT22;41205;44.264;19.884;2022-08-01T02:45:33;461.00;2380.80
55329;DHT22;41205;44.264;19.884;2022-08-01T02:48:10;461.10;2380.80
55329;DHT22;41205;44.264;19.884;2022-08-01T02:50:37;461.40;2380.80
55329;DHT22;41205;44.264;19.884;2022-08-01T02:53:03;461.20;2380.80
55329;DHT22;41205;44.264;19.884;2022-08-01T02:55:31;461.20;2380.80
55329;DHT22;41205;44.264;19.884;2022-08-01T02:57:57;461.20;2380.80
55329;DHT22;41205;44.264;19.884;2022-08-01T03:00:24;461.30;2380.80
55329;DHT22;41205;44.264;19.884;2022-08-01T03:02:50;461.30;2380.80
55329;DHT22;41205;44.264;19.884;2022-08-01T03:05:16;461.40;2380.80
55329;DHT22;41205;44.264;19.884;2022-08-01T03:07:42;461.40;2380.80
55329;DHT22;41205;44.264;19.884;2022-08-01T03:10:08;461.40;2380.80
55329;DHT22;41205;44.264;19.884;2022-08-01T03:12:35;461.40;2380.80
55329;DHT22;41205;44.264;19.884;2022-08-01T03:15:02;461.40;2380.80
55329;DHT22;41205;44.264;19.884;2022-08-01T03:17:28;461.20;2380.80
55329;DHT22;41205;44.264;19.884;2022-08-01T03:19:54;461.20;2380.80
55329;DHT22;41205;44.264;19.884;2022-08-01T03:22:21;461.30;2380.80
55329;DHT22;41205;44.264;19.884;2022-08-01T03:24:49;461.30;2380.80
55329;DHT22;41205;44.264;19.884;2022-08-01T03:27:16;461.40;2380.80
55329;DHT22;41205;44.264;19.884;2022-08-01T03:29:43;461.30;2380.80
55329;DHT22;41205;44.264;19.884;2022-08-01T03:32:10;461.10;2380.80
55329;DHT22;41205;44.264;19.884;2022-08-01T03:34:36;461.00;2380.80
55329;DHT22;41205;44.264;19.884;2022-08-01T03:37:03;460.90;2380.80
55329;DHT22;41205;44.264;19.884;2022-08-01T03:39:34;460.90;2380.80
55329;DHT22;41205;44.264;19.884;2022-08-01T03:42:05;461.00;2380.80
55329;DHT22;41205;44.264;19.884;2022-08-01T03:44:32;461.00;2380.80
55329;DHT22;41205;44.264;19.884;2022-08-01T03:47:00;461.00;2380.80
55329;DHT22;41205;44.264;19.884;2022-08-01T03:49:31;460.90;2380.80
55329;DHT22;41205;44.264;19.884;2022-08-01T03:51:58;461.00;2380.80
55329;DHT22;41205;44.264;19.884;2022-08-01T03:54:25;461.00;2380.80
55329;DHT22;41205;44.264;19.884;2022-08-01T03:56:53;461.10;2380.80
55329;DHT22;41205;44.264;19.884;2022-08-01T03:59:19;461.00;2380.80
55329;DHT22;41205;44.264;19.884;2022-08-01T04:01:45;461.10;2380.80
55329;DHT22;41205;44.264;19.884;2022-08-01T04:04:11;461.10;2380.80
55329;DHT22;41205;44.264;19.884;2022-08-01T04:06:37;461.10;2380.80
55329;DHT22;41205;44.264;19.884;2022-08-01T04:09:03;461.10;2380.80
55329;DHT22;41205;44.264;19.884;2022-08-01T04:11:29;461.20;2380.80
55329;DHT22;41205;44.264;19.884;2022-08-01T04:13:55;461.40;2380.80
55329;DHT22;41205;44.264;19.884;2022-08-01T04:16:21;461.50;2380.80
55329;DHT22;41205;44.264;19.884;2022-08-01T04:18:47;461.50;2380.80
55329;DHT22;41205;44.264;19.884;2022-08-01T04:21:13;461.50;2380.80
55329;DHT22;41205;44.264;19.884;2022-08-01T04:23:39;461.40;2380.80
55329;DHT22;41205;44.264;19.884;2022-08-01T04:26:06;461.50;2380.80
55329;DHT22;41205;44.264;19.884;2022-08-01T04:28:33;461.50;2380.80
55329;DHT22;41205;44.264;19.884;2022-08-01T04:30:59;461.50;2380.80
55329;DHT22;41205;44.264;19.884;2022-08-01T04:33:25;461.50;2380.80
55329;DHT22;41205;44.264;19.884;2022-08-01T04:35:52;461.60;2380.80
55329;DHT22;41205;44.264;19.884;2022-08-01T04:38:19;461.70;2380.80
55329;DHT22;41205;44.264;19.884;2022-08-01T04:40:46;461.70;2380.80
55329;DHT22;41205;44.264;19.884;2022-08-01T04:43:12;486.40;2380.80
55329;DHT22;41205;44.264;19.884;2022-08-01T04:45:37;486.50;2380.80
55329;DHT22;41205;44.264;19.884;2022-08-01T04:48:07;486.50;2380.80
55329;DHT22;41205;44.264;19.884;2022-08-01T04:50:34;486.60;2380.80
55329;DHT22;41205;44.264;19.884;2022-08-01T04:53:00;486.70;2380.80
55329;DHT22;41205;44.264;19.884;2022-08-01T04:55:28;487.00;2380.80
55329;DHT22;41205;44.264;19.884;2022-08-01T04:57:54;487.30;2380.80
55329;DHT22;41205;44.264;19.884;2022-08-01T05:00:19;537.90;2406.40
55329;DHT22;41205;44.264;19.884;2022-08-01T05:02:45;640.20;1868.80
55329;DHT22;41205;44.264;19.884;2022-08-01T05:05:11;691.30;1715.20
55329;DHT22;41205;44.264;19.884;2022-08-01T05:07:37;768.00;1510.40
55329;DHT22;41205;44.264;19.884;2022-08-01T05:10:03;819.30;1382.40
55329;DHT22;41205;44.264;19.884;2022-08-01T05:12:29;845.30;1305.60
55329;DHT22;41205;44.264;19.884;2022-08-01T05:14:54;871.30;1177.60
55329;DHT22;41205;44.264;19.884;2022-08-01T05:17:20;921.70;1152.00
55329;DHT22;41205;44.264;19.884;2022-08-01T05:19:46;922.40;1075.20
55329;DHT22;41205;44.264;19.884;2022-08-01T05:22:12;947.20;1075.20
55329;DHT22;41205;44.264;19.884;2022-08-01T05:24:38;948.00;1024.00
55329;DHT22;41205;44.264;19.884;2022-08-01T05:27:04;973.00;1024.00
55329;DHT22;41205;44.264;19.884;2022-08-01T05:29:30;972.90;1049.60
55329;DHT22;41205;44.264;19.884;2022-08-01T05:31:55;973.40;1024.00
55329;DHT22;41205;44.264;19.884;2022-08-01T05:34:21;998.60;1024.00
55329;DHT22;41205;44.264;19.884;2022-08-01T05:36:47;1024.20;972.80
55329;DHT22;41205;44.264;19.884;2022-08-01T05:41:39;1049.70;972.80
55329;DHT22;41205;44.264;19.884;2022-08-01T05:44:05;1075.40;947.20
55329;DHT22;41205;44.264;19.884;2022-08-01T05:46:31;1075.70;921.60
55329;DHT22;41205;44.264;19.884;2022-08-01T05:48:57;1075.80;896.00
55329;DHT22;41205;44.264;19.884;2022-08-01T05:51:23;1075.80;896.00
55329;DHT22;41205;44.264;19.884;2022-08-01T05:53:49;1101.00;921.60
55329;DHT22;41205;44.264;19.884;2022-08-01T05:56:15;1075.90;921.60
55329;DHT22;41205;44.264;19.884;2022-08-01T05:58:40;1101.40;896.00
55329;DHT22;41205;44.264;19.884;2022-08-01T06:01:06;1126.80;896.00
55329;DHT22;41205;44.264;19.884;2022-08-01T06:03:31;1127.30;870.40
55329;DHT22;41205;44.264;19.884;2022-08-01T06:05:58;1152.60;844.80
55329;DHT22;41205;44.264;19.884;2022-08-01T06:08:24;1177.70;819.20
55329;DHT22;41205;44.264;19.884;2022-08-01T06:10:50;1177.80;819.20
55329;DHT22;41205;44.264;19.884;2022-08-01T06:13:15;1177.60;819.20
55329;DHT22;41205;44.264;19.884;2022-08-01T06:15:41;1178.10;819.20
55329;DHT22;41205;44.264;19.884;2022-08-01T06:18:06;1178.20;793.60
55329;DHT22;41205;44.264;19.884;2022-08-01T06:20:32;1203.20;819.20
55329;DHT22;41205;44.264;19.884;2022-08-01T06:22:57;1203.80;793.60
55329;DHT22;41205;44.264;19.884;2022-08-01T06:25:23;1178.20;819.20
55329;DHT22;41205;44.264;19.884;2022-08-01T06:27:48;1228.80;793.60
55329;DHT22;41205;44.264;19.884;2022-08-01T06:30:14;1229.30;793.60
55329;DHT22;41205;44.264;19.884;2022-08-01T06:32:40;1228.90;793.60
55329;DHT22;41205;44.264;19.884;2022-08-01T06:35:06;1204.10;768.00
55329;DHT22;41205;44.264;19.884;2022-08-01T06:37:32;1203.80;768.00
55329;DHT22;41205;44.264;19.884;2022-08-01T06:40:02;1203.90;768.00
55329;DHT22;41205;44.264;19.884;2022-08-01T06:42:28;1229.20;793.60
55329;DHT22;41205;44.264;19.884;2022-08-01T06:44:54;1229.20;793.60
55329;DHT22;41205;44.264;19.884;2022-08-01T06:47:19;1228.90;793.60
55329;DHT22;41205;44.264;19.884;2022-08-01T06:49:45;1229.40;768.00
55329;DHT22;41205;44.264;19.884;2022-08-01T06:52:10;1229.30;768.00
55329;DHT22;41205;44.264;19.884;2022-08-01T06:54:36;1229.20;768.00
55329;DHT22;41205;44.264;19.884;2022-08-01T06:57:04;1203.80;768.00
55329;DHT22;41205;44.264;19.884;2022-08-01T06:59:30;1203.80;768.00
55329;DHT22;41205;44.264;19.884;2022-08-01T07:01:56;1203.90;768.00
55329;DHT22;41205;44.264;19.884;2022-08-01T07:04:21;1178.00;768.00
55329;DHT22;41205;44.264;19.884;2022-08-01T07:06:47;1178.50;768.00
55329;DHT22;41205;44.264;19.884;2022-08-01T07:09:12;1203.80;768.00
55329;DHT22;41205;44.264;19.884;2022-08-01T07:11:38;1228.80;768.00
55329;DHT22;41205;44.264;19.884;2022-08-01T07:14:04;1229.20;742.40
55329;DHT22;41205;44.264;19.884;2022-08-01T07:16:29;1229.50;742.40
55329;DHT22;41205;44.264;19.884;2022-08-01T07:18:55;1229.30;742.40
55329;DHT22;41205;44.264;19.884;2022-08-01T07:21:21;1229.30;768.00
55329;DHT22;41205;44.264;19.884;2022-08-01T07:23:46;1255.10;742.40
55329;DHT22;41205;44.264;19.884;2022-08-01T07:26:12;1280.20;716.80
55329;DHT22;41205;44.264;19.884;2022-08-01T07:28:38;1254.90;742.40
55329;DHT22;41205;44.264;19.884;2022-08-01T07:31:04;1229.20;742.40
55329;DHT22;41205;44.264;19.884;2022-08-01T07:33:29;1229.20;742.40
55329;DHT22;41205;44.264;19.884;2022-08-01T07:35:55;1229.30;742.40
55329;DHT22;41205;44.264;19.884;2022-08-01T07:38:20;1229.00;742.40
55329;DHT22;41205;44.264;19.884;2022-08-01T07:40:46;1228.90;768.00
55329;DHT22;41205;44.264;19.884;2022-08-01T07:43:11;1229.20;742.40
55329;DHT22;41205;44.264;19.884;2022-08-01T07:45:37;1254.40;742.40
55329;DHT22;41205;44.264;19.884;2022-08-01T07:48:03;1229.50;742.40
55329;DHT22;41205;44.264;19.884;2022-08-01T07:50:29;1229.70;716.80
55329;DHT22;41205;44.264;19.884;2022-08-01T07:52:55;1229.50;742.40
55329;DHT22;41205;44.264;19.884;2022-08-01T07:55:20;1254.80;742.40
55329;DHT22;41205;44.264;19.884;2022-08-01T07:57:46;1254.40;768.00
55329;DHT22;41205;44.264;19.884;2022-08-01T08:00:12;1229.40;742.40
55329;DHT22;41205;44.264;19.884;2022-08-01T08:02:38;1254.60;742.40
55329;DHT22;41205;44.264;19.884;2022-08-01T08:05:04;1228.90;742.40
55329;DHT22;41205;44.264;19.884;2022-08-01T08:07:30;1229.30;742.40
55329;DHT22;41205;44.264;19.884;2022-08-01T08:09:55;1229.50;742.40
55329;DHT22;41205;44.264;19.884;2022-08-01T08:12:21;1254.80;742.40
55329;DHT22;41205;44.264;19.884;2022-08-01T08:14:47;1229.50;742.40
55329;DHT22;41205;44.264;19.884;2022-08-01T08:17:12;1229.30;742.40
55329;DHT22;41205;44.264;19.884;2022-08-01T08:19:38;1228.80;768.00
55329;DHT22;41205;44.264;19.884;2022-08-01T08:22:08;1229.20;742.40
55329;DHT22;41205;44.264;19.884;2022-08-01T08:24:34;1229.00;742.40
55329;DHT22;41205;44.264;19.884;2022-08-01T08:27:00;1178.30;742.40
55329;DHT22;41205;44.264;19.884;2022-08-01T08:29:27;1177.60;768.00
55329;DHT22;41205;44.264;19.884;2022-08-01T08:31:55;1127.00;819.20
55329;DHT22;41205;44.264;19.884;2022-08-01T08:34:21;1075.50;844.80
55329;DHT22;41205;44.264;19.884;2022-08-01T08:36:47;1024.00;921.60
55329;DHT22;41205;44.264;19.884;2022-08-01T08:39:13;973.40;947.20
55329;DHT22;41205;44.264;19.884;2022-08-01T08:41:39;947.90;972.80
55329;DHT22;41205;44.264;19.884;2022-08-01T08:44:07;922.40;998.40
55329;DHT22;41205;44.264;19.884;2022-08-01T08:46:33;921.80;1024.00
55329;DHT22;41205;44.264;19.884;2022-08-01T08:49:00;896.90;1024.00
55329;DHT22;41205;44.264;19.884;2022-08-01T08:51:26;896.90;1024.00
55329;DHT22;41205;44.264;19.884;2022-08-01T08:53:53;896.50;1049.60
55329;DHT22;41205;44.264;19.884;2022-08-01T08:56:20;896.20;1075.20
55329;DHT22;41205;44.264;19.884;2022-08-01T08:58:45;871.30;1075.20
55329;DHT22;41205;44.264;19.884;2022-08-01T09:01:12;871.30;1049.60
55329;DHT22;41205;44.264;19.884;2022-08-01T09:03:38;871.10;1075.20
55329;DHT22;41205;44.264;19.884;2022-08-01T09:06:04;871.00;1100.80
55329;DHT22;41205;44.264;19.884;2022-08-01T09:08:29;870.80;1100.80
55329;DHT22;41205;44.264;19.884;2022-08-01T09:10:55;870.70;1100.80
55329;DHT22;41205;44.264;19.884;2022-08-01T09:13:20;870.50;1100.80
55329;DHT22;41205;44.264;19.884;2022-08-01T09:15:47;870.60;1100.80
55329;DHT22;41205;44.264;19.884;2022-08-01T09:18:26;845.60;1126.40
55329;DHT22;41205;44.264;19.884;2022-08-01T09:25:58;845.40;1126.40
55329;DHT22;41205;44.264;19.884;2022-08-01T09:28:31;845.20;1152.00
55329;DHT22;41205;44.264;19.884;2022-08-01T09:30:57;845.50;1152.00
55329;DHT22;41205;44.264;19.884;2022-08-01T09:33:22;845.50;1126.40
55329;DHT22;41205;44.264;19.884;2022-08-01T09:35:55;845.70;1100.80
55329;DHT22;41205;44.264;19.884;2022-08-01T09:38:22;870.40;1100.80
55329;DHT22;41205;44.264;19.884;2022-08-01T09:43:14;845.40;1126.40
55329;DHT22;41205;44.264;19.884;2022-08-01T09:45:39;845.40;1152.00
55329;DHT22;41205;44.264;19.884;2022-08-01T09:48:06;845.40;1152.00
55329;DHT22;41205;44.264;19.884;2022-08-01T09:50:39;845.20;1177.60
55329;DHT22;41205;44.264;19.884;2022-08-01T09:53:05;844.90;1177.60
55329;DHT22;41205;44.264;19.884;2022-08-01T09:55:31;845.40;1177.60
55329;DHT22;41205;44.264;19.884;2022-08-01T09:57:56;845.20;1177.60
55329;DHT22;41205;44.264;19.884;2022-08-01T10:00:26;845.00;1177.60
55329;DHT22;41205;44.264;19.884;2022-08-01T10:02:52;845.20;1177.60
55329;DHT22;41205;44.264;19.884;2022-08-01T10:05:17;844.80;1177.60
55329;DHT22;41205;44.264;19.884;2022-08-01T10:07:55;844.80;1177.60
55329;DHT22;41205;44.264;19.884;2022-08-01T10:10:20;844.80;1203.20
55329;DHT22;41205;44.264;19.884;2022-08-01T10:12:46;845.30;1177.60
55329;DHT22;41205;44.264;19.884;2022-08-01T10:15:15;845.20;1177.60
55329;DHT22;41205;44.264;19.884;2022-08-01T10:17:44;845.20;1152.00
55329;DHT22;41205;44.264;19.884;2022-08-01T10:20:11;844.90;1152.00
55329;DHT22;41205;44.264;19.884;2022-08-01T10:22:37;845.20;1177.60
55329;DHT22;41205;44.264;19.884;2022-08-01T10:25:03;845.30;1152.00
55329;DHT22;41205;44.264;19.884;2022-08-01T10:27:29;845.30;1152.00
55329;DHT22;41205;44.264;19.884;2022-08-01T10:29:58;819.80;1177.60
55329;DHT22;41205;44.264;19.884;2022-08-01T10:32:31;819.60;1203.20
55329;DHT22;41205;44.264;19.884;2022-08-01T10:34:57;819.60;1177.60
55329;DHT22;41205;44.264;19.884;2022-08-01T10:37:23;819.80;1177.60
55329;DHT22;41205;44.264;19.884;2022-08-01T10:39:50;820.10;1177.60
55329;DHT22;41205;44.264;19.884;2022-08-01T10:42:16;819.80;1177.60
55329;DHT22;41205;44.264;19.884;2022-08-01T10:44:42;820.10;1177.60
55329;DHT22;41205;44.264;19.884;2022-08-01T10:47:12;844.90;1177.60
55329;DHT22;41205;44.264;19.884;2022-08-01T10:52:26;845.10;1152.00
55329;DHT22;41205;44.264;19.884;2022-08-01T10:55:07;844.90;1177.60
55329;DHT22;41205;44.264;19.884;2022-08-01T11:00:08;819.60;1177.60
55329;DHT22;41205;44.264;19.884;2022-08-01T11:02:33;819.70;1177.60
55329;DHT22;41205;44.264;19.884;2022-08-01T11:05:19;819.90;1152.00
55329;DHT22;41205;44.264;19.884;2022-08-01T11:07:47;820.00;1126.40
55329;DHT22;41205;44.264;19.884;2022-08-01T11:10:19;820.10;1152.00
55329;DHT22;41205;44.264;19.884;2022-08-01T11:12:47;844.80;1152.00
55329;DHT22;41205;44.264;19.884;2022-08-01T11:17:39;844.90;1152.00
55329;DHT22;41205;44.264;19.884;2022-08-01T11:20:13;820.10;1126.40
55329;DHT22;41205;44.264;19.884;2022-08-01T11:25:23;820.10;1152.00
55329;DHT22;41205;44.264;19.884;2022-08-01T11:27:48;819.80;1177.60
55329;DHT22;41205;44.264;19.884;2022-08-01T11:32:46;819.80;1177.60
55329;DHT22;41205;44.264;19.884;2022-08-01T11:35:12;819.60;1177.60
55329;DHT22;41205;44.264;19.884;2022-08-01T11:37:37;819.70;1177.60
55329;DHT22;41205;44.264;19.884;2022-08-01T11:42:41;819.80;1152.00
55329;DHT22;41205;44.264;19.884;2022-08-01T11:45:07;819.90;1126.40
55329;DHT22;41205;44.264;19.884;2022-08-01T11:47:48;819.80;1126.40
55329;DHT22;41205;44.264;19.884;2022-08-01T11:55:26;794.40;1177.60
55329;DHT22;41205;44.264;19.884;2022-08-01T11:57:58;794.20;1203.20
55329;DHT22;41205;44.264;19.884;2022-08-01T12:00:24;794.00;1203.20
55329;DHT22;41205;44.264;19.884;2022-08-01T12:03:05;794.00;1228.80
55329;DHT22;41205;44.264;19.884;2022-08-01T12:05:32;794.20;1228.80
55329;DHT22;41205;44.264;19.884;2022-08-01T12:07:59;794.20;1203.20
55329;DHT22;41205;44.264;19.884;2022-08-01T12:10:25;794.20;1203.20
55329;DHT22;41205;44.264;19.884;2022-08-01T12:12:53;794.30;1203.20
55329;DHT22;41205;44.264;19.884;2022-08-01T12:15:19;794.40;1203.20
55329;DHT22;41205;44.264;19.884;2022-08-01T12:17:48;819.30;1177.60
55329;DHT22;41205;44.264;19.884;2022-08-01T12:20:15;819.40;1177.60
55329;DHT22;41205;44.264;19.884;2022-08-01T12:22:41;819.30;1177.60
55329;DHT22;41205;44.264;19.884;2022-08-01T12:27:36;794.30;1203.20
55329;DHT22;41205;44.264;19.884;2022-08-01T12:30:04;794.30;1177.60
55329;DHT22;41205;44.264;19.884;2022-08-01T12:32:33;794.20;1203.20
55329;DHT22;41205;44.264;19.884;2022-08-01T12:35:03;819.20;1228.80
55329;DHT22;41205;44.264;19.884;2022-08-01T12:37:29;819.50;1177.60
55329;DHT22;41205;44.264;19.884;2022-08-01T12:39:55;819.60;1152.00
55329;DHT22;41205;44.264;19.884;2022-08-01T12:42:21;819.50;1177.60
55329;DHT22;41205;44.264;19.884;2022-08-01T12:44:48;819.50;1177.60
55329;DHT22;41205;44.264;19.884;2022-08-01T12:47:14;819.80;1152.00
55329;DHT22;41205;44.264;19.884;2022-08-01T12:49:41;819.90;1177.60
55329;DHT22;41205;44.264;19.884;2022-08-01T12:52:07;844.90;1177.60
55329;DHT22;41205;44.264;19.884;2022-08-01T12:55:34;845.00;1152.00
55329;DHT22;41205;44.264;19.884;2022-08-01T12:57:28;844.90;1152.00
55329;DHT22;41205;44.264;19.884;2022-08-01T13:00:04;819.90;1177.60
55329;DHT22;41205;44.264;19.884;2022-08-01T13:02:33;820.10;1152.00
55329;DHT22;41205;44.264;19.884;2022-08-01T13:04:59;819.90;1152.00
55329;DHT22;41205;44.264;19.884;2022-08-01T13:10:26;819.80;1177.60
55329;DHT22;41205;44.264;19.884;2022-08-01T13:12:53;819.70;1177.60
55329;DHT22;41205;44.264;19.884;2022-08-01T13:17:44;819.60;1177.60
55329;DHT22;41205;44.264;19.884;2022-08-01T13:20:10;819.60;1152.00
55329;DHT22;41205;44.264;19.884;2022-08-01T13:22:46;819.60;1177.60
55329;DHT22;41205;44.264;19.884;2022-08-01T13:25:12;819.80;1177.60
55329;DHT22;41205;44.264;19.884;2022-08-01T13:27:38;819.60;1152.00
55329;DHT22;41205;44.264;19.884;2022-08-01T13:30:13;819.50;1177.60
55329;DHT22;41205;44.264;19.884;2022-08-01T13:32:39;819.60;1177.60
55329;DHT22;41205;44.264;19.884;2022-08-01T13:35:09;819.30;1203.20
55329;DHT22;41205;44.264;19.884;2022-08-01T13:37:35;819.30;1203.20
55329;DHT22;41205;44.264;19.884;2022-08-01T13:40:01;819.60;1177.60
55329;DHT22;41205;44.264;19.884;2022-08-01T13:42:26;819.80;1152.00
55329;DHT22;41205;44.264;19.884;2022-08-01T13:44:54;819.80;1152.00
55329;DHT22;41205;44.264;19.884;2022-08-01T13:47:20;820.00;1152.00
55329;DHT22;41205;44.264;19.884;2022-08-01T13:49:45;820.00;1152.00
55329;DHT22;41205;44.264;19.884;2022-08-01T13:52:11;844.90;1177.60
55329;DHT22;41205;44.264;19.884;2022-08-01T13:54:36;844.90;1177.60
55329;DHT22;41205;44.264;19.884;2022-08-01T13:57:02;844.80;1152.00
55329;DHT22;41205;44.264;19.884;2022-08-01T13:59:28;820.10;1152.00
55329;DHT22;41205;44.264;19.884;2022-08-01T14:01:54;819.90;1152.00
55329;DHT22;41205;44.264;19.884;2022-08-01T14:04:19;819.70;1177.60
55329;DHT22;41205;44.264;19.884;2022-08-01T14:06:46;819.30;1177.60
55329;DHT22;41205;44.264;19.884;2022-08-01T14:09:12;819.30;1177.60
55329;DHT22;41205;44.264;19.884;2022-08-01T14:11:37;794.50;1177.60
55329;DHT22;41205;44.264;19.884;2022-08-01T14:14:03;819.20;1203.20
55329;DHT22;41205;44.264;19.884;2022-08-01T14:16:29;819.20;1177.60
55329;DHT22;41205;44.264;19.884;2022-08-01T14:18:54;819.30;1177.60
55329;DHT22;41205;44.264;19.884;2022-08-01T14:21:20;819.70;1177.60
55329;DHT22;41205;44.264;19.884;2022-08-01T14:23:45;819.70;1177.60
55329;DHT22;41205;44.264;19.884;2022-08-01T14:26:11;819.80;1152.00
55329;DHT22;41205;44.264;19.884;2022-08-01T14:28:37;819.90;1152.00
55329;DHT22;41205;44.264;19.884;2022-08-01T14:31:03;820.00;1177.60
55329;DHT22;41205;44.264;19.884;2022-08-01T14:33:29;819.70;1177.60
55329;DHT22;41205;44.264;19.884;2022-08-01T14:35:56;819.60;1177.60
55329;DHT22;41205;44.264;19.884;2022-08-01T14:38:21;819.70;1177.60
55329;DHT22;41205;44.264;19.884;2022-08-01T14:40:47;819.60;1177.60
55329;DHT22;41205;44.264;19.884;2022-08-01T14:43:19;819.60;1177.60
55329;DHT22;41205;44.264;19.884;2022-08-01T14:45:45;819.50;1177.60
55329;DHT22;41205;44.264;19.884;2022-08-01T14:48:14;819.30;1177.60
55329;DHT22;41205;44.264;19.884;2022-08-01T14:50:40;819.30;1203.20
55329;DHT22;41205;44.264;19.884;2022-08-01T14:53:06;794.50;1203.20
55329;DHT22;41205;44.264;19.884;2022-08-01T14:55:31;794.50;1203.20
55329;DHT22;41205;44.264;19.884;2022-08-01T14:57:57;819.20;1203.20
55329;DHT22;41205;44.264;19.884;2022-08-01T15:00:23;819.30;1203.20
55329;DHT22;41205;44.264;19.884;2022-08-01T15:02:48;819.20;1203.20
55329;DHT22;41205;44.264;19.884;2022-08-01T15:05:14;794.50;1203.20
55329;DHT22;41205;44.264;19.884;2022-08-01T15:07:39;794.40;1203.20
55329;DHT22;41205;44.264;19.884;2022-08-01T15:10:05;794.30;1228.80
55329;DHT22;41205;44.264;19.884;2022-08-01T15:12:31;794.10;1228.80
55329;DHT22;41205;44.264;19.884;2022-08-01T15:14:57;794.00;1228.80
55329;DHT22;41205;44.264;19.884;2022-08-01T15:17:23;793.80;1254.40
55329;DHT22;41205;44.264;19.884;2022-08-01T15:19:51;793.70;1280.00
55329;DHT22;41205;44.264;19.884;2022-08-01T15:22:17;793.70;1280.00